Time;durP1;ratioP1;P1;durP2;ratioP2;P2;SDS_P1;SDS_P2;PMS_P1;PMS_P2;Temp;Humidity;BMP_temperature;BMP_pressure;BME280_temperature;BME280_humidity;BME280_pressure;Samples;Min_cycle;Max_cycle;Signal;HPM_P1;HPM_P2
2023/03/02 00:01:35;;;;;;;9.50;6.50;;;3.20;75.60;;;;;;4971684;28;20454;-59
2023/03/02 00:04:04;;;;;;;7.57;5.78;;;3.20;75.40;;;;;;4970512;28;20026;-59
2023/03/02 00:06:31;;;;;;;7.82;5.55;;;3.10;75.20;;;;;;4973363;28;20046;-59
2023/03/02 00:09:01;;;;;;;7.43;5.82;;;3.10;75.20;;;;;;4972198;28;20078;-59
2023/03/02 00:11:29;;;;;;;7.43;5.57;;;3.10;75.70;;;;;;4967768;28;20466;-63
2023/03/02 00:13:55;;;;;;;8.75;6.00;;;3.10;75.00;;;;;;4973486;28;20457;-64
2023/03/02 00:16:20;;;;;;;8.73;6.20;;;3.00;74.90;;;;;;4973578;28;20125;-61
2023/03/02 00:18:46;;;;;;;8.00;5.97;;;3.00;74.80;;;;;;4971260;28;20465;-60
2023/03/02 00:21:12;;;;;;;7.35;6.40;;;3.00;74.70;;;;;;4972485;28;20034;-59
2023/03/02 00:23:37;;;;;;;7.60;5.80;;;3.00;74.70;;;;;;4973200;28;20101;-59
2023/03/02 00:26:04;;;;;;;8.40;6.15;;;3.00;74.60;;;;;;4970212;28;20035;-61
2023/03/02 00:28:31;;;;;;;8.75;7.10;;;3.00;74.60;;;;;;4971249;28;20154;-60
2023/03/02 00:30:56;;;;;;;8.38;6.18;;;3.00;74.60;;;;;;4972522;28;20145;-62
2023/03/02 00:33:22;;;;;;;8.50;5.50;;;3.00;74.60;;;;;;4972845;28;20138;-60
2023/03/02 00:35:48;;;;;;;9.13;6.07;;;3.00;74.60;;;;;;4962822;28;20097;-60
2023/03/02 00:38:13;;;;;;;9.13;6.47;;;3.00;74.40;;;;;;4967543;28;20062;-59
2023/03/02 00:40:44;;;;;;;11.40;7.50;;;3.00;74.20;;;;;;4968446;28;20027;-61
2023/03/02 00:43:10;;;;;;;8.85;6.93;;;3.00;74.30;;;;;;4969801;28;20023;-61
2023/03/02 00:45:35;;;;;;;9.70;6.97;;;3.10;74.50;;;;;;4967716;28;20111;-61
2023/03/02 00:48:01;;;;;;;9.77;6.47;;;3.10;74.30;;;;;;4976223;28;20042;-61
2023/03/02 00:50:27;;;;;;;9.07;6.57;;;3.20;74.20;;;;;;4959982;28;20035;-61
2023/03/02 00:52:52;;;;;;;10.70;6.82;;;3.30;73.90;;;;;;4970683;28;20481;-61
2023/03/02 00:55:18;;;;;;;10.02;7.00;;;3.40;73.70;;;;;;4973411;28;20026;-61
2023/03/02 00:57:53;;;;;;;11.75;7.28;;;3.40;73.40;;;;;;4972481;28;20027;-60
2023/03/02 01:00:22;;;;;;;9.35;6.80;;;3.50;73.20;;;;;;4970905;28;20030;-60
2023/03/02 01:02:48;;;;;;;11.52;7.45;;;3.60;73.00;;;;;;4972112;28;20086;-59
2023/03/02 01:05:14;;;;;;;12.05;8.23;;;3.60;72.80;;;;;;4973106;28;20478;-59
2023/03/02 01:07:40;;;;;;;12.25;8.35;;;3.60;72.60;;;;;;4973508;28;20057;-60
2023/03/02 01:10:06;;;;;;;10.57;8.05;;;3.60;72.50;;;;;;4971777;28;20125;-59
2023/03/02 01:12:32;;;;;;;12.60;8.07;;;3.60;72.60;;;;;;4972850;28;20035;-59
2023/03/02 01:14:58;;;;;;;11.55;8.45;;;3.60;72.30;;;;;;4971854;28;20037;-60
2023/03/02 01:17:24;;;;;;;11.32;8.45;;;3.60;72.50;;;;;;4972471;28;20026;-61
2023/03/02 01:19:50;;;;;;;12.57;9.90;;;3.50;72.70;;;;;;4971585;28;20034;-61
2023/03/02 01:22:17;;;;;;;14.30;10.10;;;3.50;73.00;;;;;;4971969;28;20370;-61
2023/03/02 01:24:43;;;;;;;14.55;9.77;;;3.50;73.20;;;;;;4971555;28;20466;-60
2023/03/02 01:27:08;;;;;;;14.98;10.23;;;3.50;73.40;;;;;;4965574;28;20057;-60
2023/03/02 01:29:35;;;;;;;13.73;9.82;;;3.60;73.30;;;;;;4982333;28;20038;-60
2023/03/02 01:32:00;;;;;;;14.27;10.38;;;3.60;73.20;;;;;;4971774;28;20130;-53
2023/03/02 01:34:26;;;;;;;10.93;8.73;;;3.70;73.20;;;;;;4971207;28;20114;-56
2023/03/02 01:36:52;;;;;;;11.82;9.30;;;3.70;73.10;;;;;;4971620;28;20027;-61
2023/03/02 01:39:21;;;;;;;13.18;9.48;;;3.80;72.90;;;;;;4972700;28;20054;-60
2023/03/02 01:41:47;;;;;;;11.38;7.95;;;3.90;72.70;;;;;;4973866;28;20397;-60
2023/03/02 01:44:55;;;;;;;10.90;7.68;;;3.90;72.40;;;;;;4977387;28;20074;-61
2023/03/02 01:47:29;;;;;;;12.63;8.38;;;3.90;72.00;;;;;;4965986;28;20065;-61
2023/03/02 01:50:01;;;;;;;9.68;7.07;;;3.90;71.80;;;;;;4971926;28;20065;-61
2023/03/02 01:52:30;;;;;;;11.15;7.78;;;3.90;71.80;;;;;;4966767;28;20023;-62
2023/03/02 01:54:59;;;;;;;8.95;7.03;;;3.90;71.70;;;;;;4974126;28;20031;-61
2023/03/02 01:57:31;;;;;;;10.25;7.18;;;3.80;71.50;;;;;;4975925;28;20458;-49
2023/03/02 02:00:00;;;;;;;;;;;3.80;71.80;;;;;;4969773;28;20043;-49
2023/03/02 02:02:26;;;;;;;10.32;7.57;;;3.70;72.00;;;;;;4975602;28;20284;-54
2023/03/02 02:04:54;;;;;;;10.32;7.53;;;3.80;72.20;;;;;;4974637;28;20080;-56
2023/03/02 02:07:20;;;;;;;11.18;8.05;;;3.80;72.00;;;;;;4972236;28;20023;-59
2023/03/02 02:09:48;;;;;;;11.32;7.60;;;3.80;71.80;;;;;;4966948;28;20058;-59
2023/03/02 02:12:16;;;;;;;7.82;6.55;;;3.90;71.70;;;;;;4975813;28;20027;-60
2023/03/02 02:14:43;;;;;;;10.27;7.38;;;3.90;71.50;;;;;;4976416;28;20033;-60
2023/03/02 02:17:10;;;;;;;10.65;7.18;;;3.90;71.50;;;;;;4975437;28;20453;-60
2023/03/02 02:19:54;;;;;;;11.13;7.47;;;3.90;71.30;;;;;;4974798;28;20062;-57
2023/03/02 02:22:49;;;;;;;10.77;7.57;;;3.90;71.20;;;;;;4967196;28;20109;-59
2023/03/02 02:25:52;;;;;;;9.95;6.97;;;3.90;71.20;;;;;;4961908;28;20038;-59
2023/03/02 02:28:25;;;;;;;10.02;7.35;;;3.90;71.10;;;;;;4974297;28;20034;-59
2023/03/02 02:31:04;;;;;;;9.48;7.07;;;3.90;71.10;;;;;;4982994;28;20035;-60
2023/03/02 02:33:32;;;;;;;11.70;7.15;;;3.90;71.10;;;;;;4975048;28;20023;-60
2023/03/02 02:36:05;;;;;;;9.77;7.45;;;3.90;71.00;;;;;;4975046;28;20085;-61
2023/03/02 02:38:32;;;;;;;9.73;7.53;;;3.90;71.00;;;;;;4977937;28;20106;-61
2023/03/02 02:41:01;;;;;;;9.90;7.03;;;3.80;71.00;;;;;;4969459;28;20035;-61
2023/03/02 02:43:29;;;;;;;8.40;6.65;;;3.80;71.10;;;;;;4984768;28;20074;-61
2023/03/02 02:45:56;;;;;;;9.55;6.70;;;3.80;71.10;;;;;;4975619;28;20062;-55
2023/03/02 02:48:25;;;;;;;9.43;6.93;;;3.70;71.30;;;;;;4974944;28;20027;-51
2023/03/02 02:50:59;;;;;;;8.02;6.22;;;3.70;71.50;;;;;;4970232;28;20035;-51
2023/03/02 02:53:45;;;;;;;9.20;6.40;;;3.70;71.50;;;;;;4975042;28;20034;-53
2023/03/02 02:56:12;;;;;;;10.90;6.85;;;3.60;71.60;;;;;;4973593;28;20097;-53
2023/03/02 02:58:40;;;;;;;11.55;7.68;;;3.50;71.90;;;;;;4973142;28;20035;-53
2023/03/02 03:01:07;;;;;;;10.77;7.80;;;3.40;72.10;;;;;;4973062;28;20037;-60
2023/03/02 03:03:36;;;;;;;9.20;7.25;;;3.30;72.30;;;;;;4974783;28;20038;-60
2023/03/02 03:06:05;;;;;;;9.77;7.28;;;3.30;72.70;;;;;;4973509;28;20669;-61
2023/03/02 03:08:42;;;;;;;10.25;7.00;;;3.30;72.80;;;;;;4973944;28;20041;-60
2023/03/02 03:11:10;;;;;;;10.27;7.20;;;3.40;72.80;;;;;;4958810;28;20470;-61
2023/03/02 03:13:38;;;;;;;11.27;6.78;;;3.40;72.70;;;;;;4969011;28;20437;-60
2023/03/02 03:16:06;;;;;;;10.95;7.07;;;3.50;72.60;;;;;;4973508;28;20470;-62
2023/03/02 03:18:32;;;;;;;10.15;6.38;;;3.50;72.50;;;;;;4974013;28;20038;-61
2023/03/02 03:20:58;;;;;;;8.90;6.28;;;3.50;72.40;;;;;;4973501;28;20045;-60
2023/03/02 03:23:23;;;;;;;9.70;6.78;;;3.60;72.40;;;;;;4972683;28;20058;-60
2023/03/02 03:25:49;;;;;;;8.52;6.63;;;3.60;72.30;;;;;;4971342;28;20039;-61
2023/03/02 03:28:15;;;;;;;10.70;6.80;;;3.50;72.30;;;;;;4973726;28;20023;-61
2023/03/02 03:30:40;;;;;;;9.77;6.90;;;3.60;72.30;;;;;;4983611;28;20413;-61
2023/03/02 03:33:09;;;;;;;10.18;6.95;;;3.60;72.40;;;;;;4973219;28;20168;-61
2023/03/02 03:35:39;;;;;;;9.57;7.13;;;3.60;72.50;;;;;;4974121;28;20026;-61
2023/03/02 03:38:06;;;;;;;9.50;7.22;;;3.60;72.50;;;;;;4980814;28;20038;-61
2023/03/02 03:40:33;;;;;;;11.30;7.68;;;3.60;72.50;;;;;;4973367;28;20166;-61
2023/03/02 03:43:00;;;;;;;11.75;8.13;;;3.60;72.50;;;;;;4983247;28;20409;-62
2023/03/02 03:45:26;;;;;;;10.68;7.47;;;3.60;72.50;;;;;;4973686;28;20374;-61
2023/03/02 03:47:51;;;;;;;10.75;7.82;;;3.60;72.50;;;;;;4968131;28;20030;-62
2023/03/02 03:50:17;;;;;;;10.20;7.43;;;3.60;72.50;;;;;;4973274;28;20377;-62
2023/03/02 03:52:43;;;;;;;10.13;7.43;;;3.60;72.60;;;;;;4970501;28;20425;-55
2023/03/02 03:55:10;;;;;;;10.52;7.32;;;3.60;72.70;;;;;;4973334;28;20065;-53
2023/03/02 03:57:35;;;;;;;10.98;7.10;;;3.60;72.80;;;;;;4973541;28;20026;-56
2023/03/02 04:00:04;;;;;;;11.60;7.80;;;3.60;72.60;;;;;;4972774;28;20422;-56
2023/03/02 04:02:30;;;;;;;11.00;7.40;;;3.60;72.80;;;;;;4973560;28;20070;-56
2023/03/02 04:05:05;;;;;;;13.27;7.78;;;3.60;72.70;;;;;;4971272;28;20481;-56
2023/03/02 04:07:31;;;;;;;11.38;7.40;;;3.60;72.60;;;;;;4973240;28;20022;-61
2023/03/02 04:10:02;;;;;;;12.05;7.47;;;3.60;72.70;;;;;;4972120;28;20118;-61
2023/03/02 04:12:36;;;;;;;9.93;6.90;;;3.60;72.60;;;;;;4971801;28;20027;-61
2023/03/02 04:15:04;;;;;;;10.57;7.60;;;3.70;72.60;;;;;;4972595;28;20049;-60
2023/03/02 04:17:30;;;;;;;11.35;7.85;;;3.70;72.50;;;;;;4972465;28;20474;-54
2023/03/02 04:19:55;;;;;;;11.05;6.68;;;3.70;72.40;;;;;;4971317;28;20031;-56
2023/03/02 04:22:21;;;;;;;10.05;7.25;;;3.70;72.40;;;;;;4968691;28;20113;-61
2023/03/02 04:24:48;;;;;;;9.38;7.60;;;3.70;72.50;;;;;;4972626;28;20114;-61
2023/03/02 04:27:13;;;;;;;9.98;7.55;;;3.70;72.50;;;;;;4971941;28;20038;-61
2023/03/02 04:29:40;;;;;;;10.00;7.18;;;3.70;72.60;;;;;;4983863;28;20097;-61
2023/03/02 04:32:06;;;;;;;11.25;7.05;;;3.60;72.40;;;;;;4972506;28;20026;-60
2023/03/02 04:34:32;;;;;;;10.38;7.60;;;3.60;72.50;;;;;;4973154;28;20062;-60
2023/03/02 04:36:58;;;;;;;10.98;8.07;;;3.60;72.60;;;;;;4972230;28;20401;-62
2023/03/02 04:39:24;;;;;;;11.82;8.23;;;3.60;72.90;;;;;;4976837;28;20050;-61
2023/03/02 04:41:51;;;;;;;11.07;7.95;;;3.60;73.40;;;;;;4963490;28;20035;-61
2023/03/02 04:44:18;;;;;;;11.70;8.00;;;3.60;72.90;;;;;;4972721;28;20125;-61
2023/03/02 04:46:46;;;;;;;11.65;7.10;;;3.60;73.00;;;;;;4973396;28;20426;-61
2023/03/02 04:49:17;;;;;;;11.18;7.97;;;3.60;73.00;;;;;;4970701;28;20038;-62
2023/03/02 04:51:45;;;;;;;11.27;7.82;;;3.60;72.90;;;;;;4969783;28;20027;-60
2023/03/02 04:54:25;;;;;;;10.73;7.55;;;3.60;72.80;;;;;;4962524;28;20051;-60
2023/03/02 04:56:52;;;;;;;11.68;7.50;;;3.70;72.70;;;;;;4965565;28;20034;-60
2023/03/02 04:59:21;;;;;;;9.18;7.28;;;3.70;72.60;;;;;;4972794;28;20035;-60
2023/03/02 05:01:47;;;;;;;9.32;6.90;;;3.70;72.60;;;;;;4964163;28;20043;-57
2023/03/02 05:04:13;;;;;;;10.40;6.68;;;3.80;72.70;;;;;;4972538;28;20030;-52
2023/03/02 05:06:39;;;;;;;8.38;6.50;;;3.80;72.60;;;;;;4972987;28;20109;-58
2023/03/02 05:09:05;;;;;;;8.82;6.10;;;3.80;72.60;;;;;;4972007;28;20121;-60
2023/03/02 05:11:31;;;;;;;10.00;5.95;;;3.80;72.60;;;;;;4971469;28;20038;-60
2023/03/02 05:13:59;;;;;;;7.72;6.00;;;3.70;72.50;;;;;;4972773;28;20477;-60
2023/03/02 05:16:27;;;;;;;11.15;7.28;;;3.70;72.50;;;;;;4971859;28;20430;-60
2023/03/02 05:18:54;;;;;;;8.13;6.10;;;3.60;72.50;;;;;;4971763;28;20039;-60
2023/03/02 05:21:20;;;;;;;9.02;6.38;;;3.60;72.40;;;;;;4971155;28;20026;-60
2023/03/02 05:23:46;;;;;;;9.27;5.95;;;3.60;72.40;;;;;;4972016;28;20046;-60
2023/03/02 05:26:13;;;;;;;7.38;5.40;;;3.50;72.40;;;;;;4969422;28;20034;-59
2023/03/02 05:28:39;;;;;;;7.70;6.05;;;3.50;72.30;;;;;;4970860;28;20046;-59
2023/03/02 05:31:06;;;;;;;8.40;5.88;;;3.50;72.40;;;;;;4975284;28;20058;-60
2023/03/02 05:33:31;;;;;;;11.57;5.70;;;3.60;72.40;;;;;;4976180;28;20029;-60
2023/03/02 05:35:57;;;;;;;8.00;5.43;;;3.60;72.30;;;;;;4975828;28;20113;-62
2023/03/02 05:38:23;;;;;;;7.43;5.20;;;3.60;72.80;;;;;;4982406;28;20454;-60
2023/03/02 05:40:49;;;;;;;7.63;4.75;;;3.70;71.80;;;;;;4972409;28;20046;-62
2023/03/02 05:43:17;;;;;;;7.88;4.97;;;3.70;71.60;;;;;;4974667;28;20027;-59
2023/03/02 05:45:43;;;;;;;7.68;5.30;;;3.80;71.40;;;;;;4973348;28;20042;-59
2023/03/02 05:48:11;;;;;;;7.65;5.28;;;3.80;71.20;;;;;;4972035;28;20085;-60
2023/03/02 05:50:36;;;;;;;6.05;4.55;;;3.90;71.10;;;;;;4959292;28;20470;-60
2023/03/02 05:53:02;;;;;;;6.35;4.60;;;4.00;71.20;;;;;;4967159;28;20058;-60
2023/03/02 05:55:29;;;;;;;6.47;4.38;;;4.10;71.00;;;;;;4970445;28;20536;-60
2023/03/02 05:57:54;;;;;;;6.28;4.53;;;4.20;71.00;;;;;;4970350;28;20154;-60
2023/03/02 06:00:20;;;;;;;7.18;4.70;;;4.30;70.90;;;;;;4969559;28;20550;-60
2023/03/02 06:02:46;;;;;;;6.95;4.63;;;4.40;70.80;;;;;;4970100;28;20031;-61
2023/03/02 06:05:15;;;;;;;9.25;5.25;;;4.50;70.50;;;;;;4972121;28;20628;-61
2023/03/02 06:07:41;;;;;;;8.02;5.53;;;4.60;70.30;;;;;;4965513;28;20113;-61
2023/03/02 06:10:09;;;;;;;9.88;5.70;;;4.70;70.40;;;;;;4965815;28;20051;-60
2023/03/02 06:12:35;;;;;;;7.03;5.00;;;4.90;69.90;;;;;;5003357;28;20030;-60
2023/03/02 06:15:03;;;;;;;7.32;4.85;;;5.10;69.50;;;;;;4974942;28;20042;-61
2023/03/02 06:17:28;;;;;;;7.65;4.80;;;5.30;69.40;;;;;;4973330;28;20026;-56
2023/03/02 06:19:54;;;;;;;9.95;5.90;;;5.50;69.60;;;;;;4968093;28;20467;-58
2023/03/02 06:22:20;;;;;;;10.02;6.35;;;5.90;70.10;;;;;;4970285;28;20466;-53
2023/03/02 06:24:45;;;;;;;7.47;5.88;;;6.20;70.30;;;;;;4970843;28;20038;-57
2023/03/02 06:27:12;;;;;;;10.75;7.18;;;6.60;70.10;;;;;;4968910;28;20054;-56
2023/03/02 06:29:37;;;;;;;8.70;6.60;;;6.90;69.50;;;;;;4966230;28;20031;-57
2023/03/02 06:32:04;;;;;;;7.35;6.13;;;7.30;68.80;;;;;;4973522;28;20041;-53
2023/03/02 06:34:29;;;;;;;7.15;5.45;;;7.60;67.90;;;;;;4968696;28;20031;-58
2023/03/02 06:36:55;;;;;;;7.85;6.00;;;7.70;67.10;;;;;;4968918;28;20039;-56
2023/03/02 06:39:21;;;;;;;7.90;5.70;;;7.90;65.70;;;;;;4966856;28;20066;-57
2023/03/02 06:41:48;;;;;;;9.55;6.38;;;7.90;64.80;;;;;;4964532;28;20043;-55
2023/03/02 06:44:15;;;;;;;10.00;5.93;;;7.80;65.00;;;;;;4972985;28;20037;-54
2023/03/02 06:46:42;;;;;;;6.80;5.30;;;7.70;64.20;;;;;;4968881;28;20462;-58
2023/03/02 06:49:08;;;;;;;9.75;5.88;;;7.60;64.20;;;;;;4966648;28;20034;-58
2023/03/02 06:51:34;;;;;;;7.60;4.70;;;7.50;64.20;;;;;;4961633;28;20117;-56
2023/03/02 06:54:00;;;;;;;8.05;4.80;;;7.40;63.60;;;;;;4960094;28;20379;-58
2023/03/02 06:56:26;;;;;;;5.85;4.60;;;7.30;63.50;;;;;;4968356;28;20043;-57
2023/03/02 06:58:52;;;;;;;5.50;4.18;;;7.10;63.20;;;;;;4968323;28;20110;-58
2023/03/02 07:01:18;;;;;;;5.70;4.07;;;7.00;63.20;;;;;;4963214;28;20065;-62
2023/03/02 07:03:44;;;;;;;5.63;3.85;;;6.90;63.20;;;;;;4966029;28;20390;-62
2023/03/02 07:06:11;;;;;;;7.00;4.30;;;6.80;63.00;;;;;;4966786;28;20603;-61
2023/03/02 07:08:37;;;;;;;5.03;3.67;;;6.60;62.40;;;;;;4962481;28;20042;-62
2023/03/02 07:11:05;;;;;;;5.45;4.18;;;6.50;62.30;;;;;;4964951;28;20045;-61
2023/03/02 07:13:31;;;;;;;7.55;4.30;;;6.40;62.30;;;;;;4968213;28;20035;-60
2023/03/02 07:15:56;;;;;;;9.27;4.90;;;6.30;62.60;;;;;;4964729;28;21028;-59
2023/03/02 07:18:22;;;;;;;6.63;4.28;;;6.30;62.70;;;;;;4968373;28;20061;-60
2023/03/02 07:20:47;;;;;;;9.10;4.32;;;6.20;62.80;;;;;;4964050;28;20452;-60
2023/03/02 07:23:13;;;;;;;6.43;4.05;;;6.10;62.80;;;;;;4955553;28;20074;-59
2023/03/02 07:25:39;;;;;;;8.00;4.30;;;6.10;62.80;;;;;;4958749;28;20034;-59
2023/03/02 07:28:05;;;;;;;6.78;4.30;;;6.00;62.80;;;;;;4960415;28;20041;-62
2023/03/02 07:30:30;;;;;;;7.47;4.43;;;6.00;62.60;;;;;;4965788;28;20039;-60
2023/03/02 07:32:56;;;;;;;7.20;4.03;;;6.00;62.70;;;;;;4970306;28;20030;-60
2023/03/02 07:35:22;;;;;;;6.88;4.22;;;5.90;62.70;;;;;;4965810;28;20115;-59
2023/03/02 07:37:48;;;;;;;7.30;4.40;;;5.90;62.80;;;;;;4965004;28;20035;-60
2023/03/02 07:40:13;;;;;;;6.38;4.60;;;5.90;62.60;;;;;;4972223;28;20031;-61
2023/03/02 07:42:39;;;;;;;6.88;4.07;;;5.80;62.00;;;;;;4957581;28;20458;-60
2023/03/02 07:45:05;;;;;;;6.22;4.22;;;5.80;62.20;;;;;;4966684;28;20023;-60
2023/03/02 07:47:31;;;;;;;8.52;3.88;;;5.80;62.70;;;;;;4959282;28;20050;-60
2023/03/02 07:49:57;;;;;;;5.80;4.03;;;5.70;62.60;;;;;;4963492;28;20102;-60
2023/03/02 07:52:23;;;;;;;7.47;4.25;;;5.70;62.50;;;;;;4961188;28;21036;-60
2023/03/02 07:54:49;;;;;;;6.28;3.80;;;5.70;62.30;;;;;;4952345;28;20031;-60
2023/03/02 07:57:16;;;;;;;6.43;4.13;;;5.70;62.60;;;;;;4968830;28;20031;-60
2023/03/02 07:59:42;;;;;;;6.60;4.00;;;5.70;62.50;;;;;;4969843;28;20058;-60
2023/03/02 08:02:13;;;;;;;5.53;3.90;;;5.70;62.40;;;;;;4975761;28;20715;-60
2023/03/02 08:04:39;;;;;;;5.83;4.13;;;5.70;62.50;;;;;;4960034;28;20042;-61
2023/03/02 08:07:05;;;;;;;8.10;4.57;;;5.70;62.30;;;;;;4955542;28;20277;-60
2023/03/02 08:09:31;;;;;;;6.50;4.38;;;5.70;62.10;;;;;;4958341;28;20042;-60
2023/03/02 08:11:57;;;;;;;7.72;4.07;;;5.70;62.00;;;;;;4958333;28;20081;-59
2023/03/02 08:14:22;;;;;;;5.93;3.85;;;5.70;62.00;;;;;;4955797;28;20450;-57
2023/03/02 08:16:48;;;;;;;7.25;4.22;;;5.70;62.90;;;;;;4951062;28;20026;-59
2023/03/02 08:19:14;;;;;;;7.68;4.13;;;5.70;62.30;;;;;;4950845;28;20070;-59
2023/03/02 08:21:40;;;;;;;6.60;4.13;;;5.70;62.30;;;;;;4958201;28;20043;-61
2023/03/02 08:24:06;;;;;;;5.45;3.80;;;5.70;62.60;;;;;;4960828;28;20093;-60
2023/03/02 08:26:31;;;;;;;6.25;3.70;;;5.70;62.20;;;;;;4961470;28;20038;-59
2023/03/02 08:28:58;;;;;;;6.03;4.30;;;5.70;62.10;;;;;;4958807;28;20038;-60
2023/03/02 08:31:24;;;;;;;6.43;3.80;;;5.70;61.90;;;;;;4955149;28;20027;-59
2023/03/02 08:33:50;;;;;;;6.95;3.88;;;5.70;62.10;;;;;;4952579;28;20049;-59
2023/03/02 08:36:18;;;;;;;8.05;4.22;;;5.70;62.30;;;;;;4946665;28;20062;-60
2023/03/02 08:38:44;;;;;;;6.10;4.10;;;5.70;62.30;;;;;;4953027;28;20022;-59
2023/03/02 08:41:12;;;;;;;7.20;4.10;;;5.70;62.20;;;;;;4959144;28;20030;-59
2023/03/02 08:43:38;;;;;;;6.20;4.30;;;5.70;62.30;;;;;;4948609;28;20054;-57
2023/03/02 08:46:04;;;;;;;6.85;4.25;;;5.70;62.50;;;;;;4960768;28;20030;-59
2023/03/02 08:48:30;;;;;;;6.40;4.03;;;5.70;62.30;;;;;;4951283;28;20454;-60
2023/03/02 08:51:00;;;;;;;7.25;4.30;;;5.70;62.10;;;;;;4956432;28;20532;-61
2023/03/02 08:53:28;;;;;;;6.13;3.45;;;5.70;62.20;;;;;;4958259;28;20493;-59
2023/03/02 08:55:53;;;;;;;5.85;3.70;;;5.80;62.30;;;;;;4954277;28;20023;-60
2023/03/02 08:58:19;;;;;;;6.70;4.00;;;5.80;62.20;;;;;;4961678;28;20050;-59
2023/03/02 09:00:45;;;;;;;6.10;3.60;;;5.80;61.90;;;;;;4953850;28;20489;-59
2023/03/02 09:03:10;;;;;;;4.97;3.50;;;5.80;61.90;;;;;;4950981;28;20043;-59
2023/03/02 09:05:36;;;;;;;5.25;3.65;;;5.80;61.70;;;;;;4960020;28;20031;-60
2023/03/02 09:08:03;;;;;;;5.60;3.95;;;5.80;61.70;;;;;;4964469;28;20045;-60
2023/03/02 09:10:28;;;;;;;6.68;3.83;;;5.80;61.80;;;;;;4970481;28;20042;-60
2023/03/02 09:12:54;;;;;;;5.15;3.30;;;5.80;61.90;;;;;;4957454;28;20118;-59
2023/03/02 09:15:20;;;;;;;6.75;3.85;;;5.90;61.70;;;;;;4966278;28;20035;-60
2023/03/02 09:17:45;;;;;;;6.78;3.72;;;5.90;61.90;;;;;;4964891;28;20035;-60
2023/03/02 09:20:11;;;;;;;5.13;3.65;;;5.90;61.90;;;;;;4956667;28;21805;-60
2023/03/02 09:22:37;;;;;;;4.80;3.30;;;6.00;62.00;;;;;;4960646;28;20101;-59
2023/03/02 09:25:06;;;;;;;7.43;3.55;;;6.10;62.20;;;;;;4962243;28;20066;-59
2023/03/02 09:27:32;;;;;;;5.40;3.78;;;6.10;62.10;;;;;;4958788;28;20367;-60
2023/03/02 09:29:58;;;;;;;5.00;3.50;;;6.20;62.00;;;;;;4953512;28;20045;-58
2023/03/02 09:32:24;;;;;;;4.80;3.05;;;6.30;61.70;;;;;;4960628;28;20038;-59
2023/03/02 09:34:50;;;;;;;4.75;3.17;;;6.30;61.70;;;;;;4954127;28;20086;-58
2023/03/02 09:37:15;;;;;;;6.57;3.92;;;6.30;61.50;;;;;;4957667;28;20023;-59
2023/03/02 09:39:41;;;;;;;7.68;4.28;;;6.40;61.40;;;;;;4956549;28;20121;-58
2023/03/02 09:42:12;;;;;;;3.97;3.20;;;6.40;60.80;;;;;;4965207;28;20031;-60
2023/03/02 09:44:44;;;;;;;;;;;6.50;60.80;;;;;;4965937;28;20030;-59
2023/03/02 09:47:34;;;;;;;6.32;3.30;;;6.40;60.30;;;;;;4956266;28;19921;-60
2023/03/02 09:50:27;;;;;;;4.82;3.67;;;6.50;61.00;;;;;;4958382;28;20042;-60
2023/03/02 09:53:10;;;;;;;3.97;3.40;;;6.50;60.80;;;;;;4967122;28;20034;-59
2023/03/02 09:55:37;;;;;;;8.25;3.58;;;6.50;61.20;;;;;;4960631;28;21171;-62
2023/03/02 09:58:13;;;;;;;4.95;3.40;;;6.50;61.00;;;;;;4958640;28;20035;-58
2023/03/02 10:00:42;;;;;;;3.88;2.97;;;6.50;60.80;;;;;;4958340;28;20094;-59
2023/03/02 10:03:20;;;;;;;4.88;3.35;;;6.60;60.60;;;;;;4950876;28;20118;-61
2023/03/02 10:05:48;;;;;;;5.85;3.20;;;6.60;60.70;;;;;;4961471;28;20053;-61
2023/03/02 10:08:19;;;;;;;3.90;3.10;;;6.60;60.40;;;;;;4955285;28;20118;-61
2023/03/02 10:11:09;;;;;;;4.65;3.33;;;6.60;60.20;;;;;;4956005;28;20066;-62
2023/03/02 10:13:41;;;;;;;3.95;3.10;;;6.60;59.80;;;;;;4954880;28;20031;-60
2023/03/02 10:16:12;;;;;;;5.43;3.40;;;6.60;59.70;;;;;;4952195;28;20121;-59
2023/03/02 10:18:56;;;;;;;2.97;2.55;;;6.60;59.90;;;;;;4954374;28;20529;-58
2023/03/02 10:21:32;;;;;;;6.80;3.70;;;6.60;59.40;;;;;;4958563;28;20028;-58
2023/03/02 10:24:17;;;;;;;3.30;2.65;;;6.60;59.50;;;;;;4954616;28;20033;-60
2023/03/02 10:26:47;;;;;;;5.18;3.05;;;6.60;59.60;;;;;;4972896;28;20034;-61
2023/03/02 10:29:27;;;;;;;4.75;2.70;;;6.60;59.30;;;;;;4956067;28;20061;-59
2023/03/02 10:32:00;;;;;;;3.60;2.75;;;6.70;59.30;;;;;;4966126;28;20478;-60
2023/03/02 10:34:29;;;;;;;3.35;2.63;;;6.70;59.50;;;;;;4958818;28;20030;-61
2023/03/02 10:36:56;;;;;;;4.32;2.72;;;6.70;59.40;;;;;;4963969;28;20027;-59
2023/03/02 10:39:21;;;;;;;3.67;2.70;;;6.80;59.40;;;;;;4960698;28;20035;-59
2023/03/02 10:42:01;;;;;;;3.67;2.90;;;6.80;59.50;;;;;;4949730;28;20038;-61
2023/03/02 10:44:37;;;;;;;3.63;2.75;;;6.80;59.30;;;;;;4957298;28;20035;-58
2023/03/02 10:47:04;;;;;;;4.22;2.88;;;6.90;59.40;;;;;;4952986;28;20386;-58
2023/03/02 10:49:41;;;;;;;5.05;2.80;;;6.90;59.60;;;;;;4939977;28;20065;-60
2023/03/02 10:52:20;;;;;;;4.00;2.70;;;6.90;59.40;;;;;;4933126;28;20041;-59
2023/03/02 10:54:46;;;;;;;4.35;2.88;;;7.00;59.20;;;;;;4942738;28;20117;-59
2023/03/02 10:57:33;;;;;;;3.95;2.88;;;6.90;59.20;;;;;;4931758;28;20035;-58
2023/03/02 11:00:13;;;;;;;3.47;2.45;;;7.00;59.20;;;;;;4942575;28;20039;-61
2023/03/02 11:02:57;;;;;;;3.92;2.40;;;7.00;59.30;;;;;;4944681;28;20034;-59
2023/03/02 11:05:27;;;;;;;2.78;2.40;;;7.00;59.30;;;;;;4951745;28;20030;-59
2023/03/02 11:08:00;;;;;;;2.58;2.30;;;7.00;59.60;;;;;;4945721;28;20031;-59
2023/03/02 11:10:49;;;;;;;2.97;2.40;;;7.00;59.70;;;;;;4951134;28;20046;-59
2023/03/02 11:13:19;;;;;;;4.80;2.72;;;7.10;59.70;;;;;;4953149;28;20031;-58
2023/03/02 11:15:50;;;;;;;2.78;2.50;;;7.00;59.70;;;;;;4945296;28;20135;-59
2023/03/02 11:18:22;;;;;;;3.45;3.13;;;7.10;59.80;;;;;;4955162;28;20066;-59
2023/03/02 11:20:51;;;;;;;4.25;2.92;;;7.10;59.80;;;;;;4948990;28;20575;-58
2023/03/02 11:23:30;;;;;;;3.35;2.75;;;7.20;59.80;;;;;;4951538;28;20142;-59
2023/03/02 11:26:04;;;;;;;4.95;3.20;;;7.20;59.80;;;;;;4947699;28;20031;-60
2023/03/02 11:28:48;;;;;;;4.90;3.03;;;7.20;59.60;;;;;;4951995;28;20488;-59
2023/03/02 11:31:31;;;;;;;4.40;2.90;;;7.20;59.70;;;;;;4948327;28;20055;-59
2023/03/02 11:34:24;;;;;;;3.97;3.00;;;7.30;59.50;;;;;;4952644;28;20038;-61
2023/03/02 11:37:09;;;;;;;3.30;2.78;;;7.40;59.60;;;;;;4954121;28;20054;-61
2023/03/02 11:40:04;;;;;;;4.72;3.10;;;7.40;59.40;;;;;;4951613;28;20039;-60
2023/03/02 11:42:39;;;;;;;4.03;2.95;;;7.40;58.90;;;;;;4942919;28;20081;-58
2023/03/02 11:45:20;;;;;;;4.25;2.65;;;7.50;59.20;;;;;;4945518;28;20042;-60
2023/03/02 11:47:55;;;;;;;5.30;3.40;;;7.50;59.20;;;;;;4952399;28;20035;-62
2023/03/02 11:50:22;;;;;;;3.60;2.92;;;7.50;59.20;;;;;;4950903;28;20058;-59
2023/03/02 11:52:53;;;;;;;3.42;2.47;;;7.60;59.00;;;;;;4949220;28;20121;-58
2023/03/02 11:55:44;;;;;;;3.70;2.60;;;7.50;58.90;;;;;;4953817;28;20053;-59
2023/03/02 11:58:23;;;;;;;2.65;2.20;;;7.60;58.50;;;;;;4960646;28;20062;-60
2023/03/02 12:00:49;;;;;;;2.88;2.50;;;7.60;58.70;;;;;;4940988;28;20242;-62
2023/03/02 12:03:15;;;;;;;3.83;2.70;;;7.60;58.40;;;;;;4943245;28;20027;-62
2023/03/02 12:05:44;;;;;;;4.30;2.95;;;7.60;58.50;;;;;;4949944;28;20062;-62
2023/03/02 12:08:19;;;;;;;2.83;2.53;;;7.60;58.00;;;;;;4951067;28;20027;-61
2023/03/02 12:11:02;;;;;;;3.15;2.47;;;7.60;57.80;;;;;;4956989;28;20050;-62
2023/03/02 12:13:36;;;;;;;3.70;2.42;;;7.60;57.80;;;;;;4953093;28;20146;-61
2023/03/02 12:16:03;;;;;;;3.13;2.50;;;7.60;58.00;;;;;;4954940;28;20035;-62
2023/03/02 12:18:41;;;;;;;4.60;2.75;;;7.60;58.00;;;;;;4952501;28;20042;-59
2023/03/02 12:21:09;;;;;;;2.85;2.13;;;7.70;58.10;;;;;;4958888;28;20038;-62
2023/03/02 12:23:52;;;;;;;2.88;2.28;;;7.70;57.80;;;;;;4961719;28;20073;-61
2023/03/02 12:26:24;;;;;;;3.33;2.00;;;7.70;57.80;;;;;;4962403;28;20039;-61
2023/03/02 12:29:09;;;;;;;3.47;2.35;;;7.70;57.80;;;;;;4952049;28;20595;-60
2023/03/02 12:31:50;;;;;;;3.22;2.03;;;7.70;57.70;;;;;;4948140;28;20034;-61
2023/03/02 12:34:21;;;;;;;4.68;2.75;;;7.70;58.00;;;;;;4947394;28;20034;-60
2023/03/02 12:36:49;;;;;;;4.53;2.65;;;7.70;58.20;;;;;;4952408;28;20031;-61
2023/03/02 12:39:39;;;;;;;4.68;3.10;;;7.80;58.00;;;;;;4956218;28;20050;-61
2023/03/02 12:42:22;;;;;;;2.83;2.55;;;7.80;58.50;;;;;;4936277;28;20031;-62
2023/03/02 12:45:03;;;;;;;3.13;2.50;;;7.90;58.00;;;;;;4959331;28;20027;-60
2023/03/02 12:47:31;;;;;;;3.60;2.40;;;7.90;57.80;;;;;;4948468;28;20114;-61
2023/03/02 12:50:04;;;;;;;3.53;2.63;;;7.90;58.00;;;;;;4938556;28;20615;-60
2023/03/02 12:52:35;;;;;;;2.42;2.20;;;7.90;57.50;;;;;;4947941;28;20035;-61
2023/03/02 12:55:18;;;;;;;2.47;2.25;;;7.90;57.80;;;;;;4951069;28;20058;-62
2023/03/02 12:57:56;;;;;;;4.45;2.65;;;7.90;57.10;;;;;;4945493;28;20035;-60
2023/03/02 13:00:25;;;;;;;4.43;2.92;;;7.90;57.40;;;;;;4948794;28;20448;-62
2023/03/02 13:02:53;;;;;;;7.57;4.13;;;7.90;57.70;;;;;;4947440;28;20034;-60
2023/03/02 13:05:23;;;;;;;4.97;3.25;;;7.90;57.70;;;;;;4951732;28;20486;-60
2023/03/02 13:08:03;;;;;;;4.63;2.88;;;7.90;57.90;;;;;;4953802;28;20030;-59